createdAt,value
2018-03-31T00:00:15.321Z,158.00
2018-03-31T00:01:12.665Z,158.00
2018-03-31T00:02:12.781Z,180.00
2018-03-31T00:03:12.781Z,174.00
2018-03-31T00:04:12.793Z,162.00
2018-03-31T00:05:12.802Z,170.00
2018-03-31T00:06:14.738Z,178.00
2018-03-31T00:07:12.709Z,178.00
2018-03-31T00:08:12.619Z,162.00
2018-03-31T00:09:12.618Z,162.00
2018-03-31T00:10:12.431Z,170.00
2018-03-31T00:11:12.830Z,167.00
2018-03-31T00:12:12.849Z,173.00
2018-03-31T00:13:12.846Z,155.00
2018-03-31T00:14:12.849Z,168.00
2018-03-31T00:15:12.874Z,182.00
2018-03-31T00:16:12.861Z,179.00
2018-03-31T00:17:14.134Z,174.00
2018-03-31T00:18:13.118Z,172.00
2018-03-31T00:19:14.154Z,154.00
2018-03-31T00:20:13.138Z,170.00
2018-03-31T00:21:12.905Z,173.00
2018-03-31T00:22:12.710Z,175.00
2018-03-31T00:23:12.731Z,162.00
2018-03-31T00:24:12.719Z,170.00
2018-03-31T00:25:12.631Z,168.00
2018-03-31T00:26:12.536Z,172.00
2018-03-31T00:27:13.993Z,171.00
2018-03-31T00:28:12.638Z,173.00
2018-03-31T00:29:12.653Z,176.00
2018-03-31T00:30:12.669Z,178.00
2018-03-31T00:31:13.699Z,178.00
2018-03-31T00:32:12.612Z,182.00
2018-03-31T00:33:12.582Z,169.00
2018-03-31T00:34:12.689Z,227.00
2018-03-31T00:35:12.598Z,192.00
2018-03-31T00:36:13.630Z,189.00
2018-03-31T00:37:12.720Z,181.00
2018-03-31T00:38:12.962Z,186.00
2018-03-31T00:39:12.622Z,181.00
2018-03-31T00:40:12.637Z,175.00
2018-03-31T00:41:12.748Z,191.00
2018-03-31T00:42:12.754Z,187.00
2018-03-31T00:43:12.763Z,203.00
2018-03-31T00:44:12.762Z,184.00
2018-03-31T00:45:12.802Z,185.00
2018-03-31T00:46:12.681Z,239.00
2018-03-31T00:47:12.699Z,187.00
2018-03-31T00:48:12.689Z,188.00
2018-03-31T00:49:12.806Z,194.00
2018-03-31T00:50:13.838Z,249.00
2018-03-31T00:51:12.823Z,180.00
2018-03-31T00:52:12.726Z,184.00
2018-03-31T00:53:12.834Z,177.00
2018-03-31T00:54:12.842Z,189.00
2018-03-31T00:55:12.861Z,180.00
2018-03-31T00:56:12.649Z,186.00
2018-03-31T00:57:12.657Z,230.00
2018-03-31T00:58:12.665Z,179.00
2018-03-31T00:59:12.679Z,200.00
2018-03-31T01:00:14.031Z,189.00
2018-03-31T01:01:12.682Z,204.00
2018-03-31T01:02:12.714Z,173.00
2018-03-31T01:03:12.691Z,181.00
2018-03-31T01:04:12.706Z,200.00
2018-03-31T01:05:12.720Z,205.00
2018-03-31T01:06:12.713Z,201.00
2018-03-31T01:07:13.759Z,283.00
2018-03-31T01:08:12.743Z,184.00
2018-03-31T01:09:12.739Z,193.00
2018-03-31T01:10:12.745Z,223.00
2018-03-31T01:11:12.753Z,313.00
2018-03-31T01:12:12.564Z,216.00
2018-03-31T01:13:12.577Z,230.00
2018-03-31T01:14:12.791Z,309.00
2018-03-31T01:15:12.785Z,272.00
2018-03-31T01:16:12.795Z,290.00
2018-03-31T01:17:12.803Z,217.00
2018-03-31T01:18:13.427Z,204.00
2018-03-31T01:19:13.841Z,257.00
2018-03-31T01:20:12.840Z,204.00
2018-03-31T01:21:12.822Z,308.00
2018-03-31T01:22:12.843Z,264.00
2018-03-31T01:23:12.860Z,184.00
2018-03-31T01:24:12.854Z,176.00
2018-03-31T01:25:12.858Z,195.00
2018-03-31T01:26:13.683Z,192.00
2018-03-31T01:27:12.861Z,196.00
2018-03-31T01:28:13.706Z,188.00
2018-03-31T01:29:12.672Z,185.00
2018-03-31T01:30:13.728Z,220.00
2018-03-31T01:31:12.707Z,193.00
2018-03-31T01:32:12.714Z,187.00
2018-03-31T01:33:12.705Z,286.00
2018-03-31T01:34:12.727Z,190.00
2018-03-31T01:35:12.725Z,275.00
2018-03-31T01:36:12.730Z,181.00
2018-03-31T01:37:12.746Z,215.00
2018-03-31T01:38:12.746Z,183.00
2018-03-31T01:39:12.988Z,202.00
2018-03-31T01:40:12.995Z,247.00
2018-03-31T01:41:12.682Z,217.00
2018-03-31T01:42:12.676Z,177.00
2018-03-31T01:43:12.678Z,188.00
2018-03-31T01:44:13.026Z,216.00
2018-03-31T01:45:12.695Z,239.00
2018-03-31T01:46:12.715Z,196.00
2018-03-31T01:47:12.711Z,257.00
2018-03-31T01:48:14.870Z,193.00
2018-03-31T01:49:12.824Z,190.00
2018-03-31T01:50:14.043Z,184.00
2018-03-31T01:51:12.737Z,195.00
2018-03-31T01:52:12.857Z,187.00
2018-03-31T01:53:12.850Z,187.00
2018-03-31T01:54:12.878Z,189.00
2018-03-31T01:55:12.898Z,187.00
2018-03-31T01:56:12.875Z,198.00
2018-03-31T01:57:12.883Z,189.00
2018-03-31T01:58:12.894Z,204.00
2018-03-31T01:59:12.900Z,180.00
2018-03-31T02:00:14.035Z,178.00
2018-03-31T02:01:12.701Z,179.00
2018-03-31T02:02:12.951Z,186.00
2018-03-31T02:03:12.731Z,199.00
2018-03-31T02:04:12.725Z,222.00
2018-03-31T02:05:12.745Z,184.00
2018-03-31T02:06:12.760Z,203.00
2018-03-31T02:07:12.750Z,176.00
2018-03-31T02:08:12.763Z,181.00
2018-03-31T02:09:12.767Z,180.00
2018-03-31T02:10:12.774Z,182.00
2018-03-31T02:11:12.787Z,185.00
2018-03-31T02:12:12.686Z,188.00
2018-03-31T02:13:12.695Z,175.00
2018-03-31T02:14:14.062Z,188.00
2018-03-31T02:15:12.705Z,186.00
2018-03-31T02:16:12.723Z,179.00
2018-03-31T02:17:12.722Z,182.00
2018-03-31T02:18:13.883Z,188.00
2018-03-31T02:19:14.080Z,213.00
2018-03-31T02:20:12.747Z,183.00
2018-03-31T02:21:25.802Z,244.00
2018-03-31T02:22:29.598Z,206.00
2018-03-31T02:23:33.192Z,217.00
2018-03-31T02:24:29.908Z,186.00
2018-03-31T02:25:28.212Z,177.00
2018-03-31T02:26:12.885Z,205.00
2018-03-31T02:27:12.901Z,193.00
2018-03-31T02:28:12.911Z,242.00
2018-03-31T02:29:12.910Z,215.00
2018-03-31T02:30:12.931Z,199.00
2018-03-31T02:31:12.927Z,206.00
2018-03-31T02:32:12.934Z,177.00
2018-03-31T02:33:12.733Z,183.00
2018-03-31T02:34:12.744Z,176.00
2018-03-31T02:35:12.755Z,185.00
2018-03-31T02:36:13.780Z,228.00
2018-03-31T02:37:13.794Z,303.00
2018-03-31T02:38:12.793Z,313.00
2018-03-31T02:39:13.005Z,329.00
2018-03-31T02:40:12.607Z,322.00
2018-03-31T02:41:12.585Z,217.00
2018-03-31T02:42:12.722Z,304.00
2018-03-31T02:43:13.863Z,330.00
2018-03-31T02:44:13.055Z,323.00
2018-03-31T02:45:12.721Z,273.00
2018-03-31T02:46:12.732Z,313.00
2018-03-31T02:47:12.741Z,213.00
2018-03-31T02:48:13.882Z,326.00
2018-03-31T02:49:13.883Z,312.00
2018-03-31T02:50:13.107Z,333.00
2018-03-31T02:51:12.771Z,336.00
2018-03-31T02:52:12.910Z,332.00
2018-03-31T02:53:12.784Z,314.00
2018-03-31T02:54:12.693Z,276.00
2018-03-31T02:55:12.701Z,216.00
2018-03-31T02:56:13.139Z,311.00
2018-03-31T02:57:12.714Z,307.00
2018-03-31T02:58:12.626Z,236.00
2018-03-31T02:59:12.628Z,303.00
2018-03-31T03:00:16.981Z,233.00
2018-03-31T03:01:12.749Z,304.00
2018-03-31T03:02:12.652Z,329.00
2018-03-31T03:03:12.760Z,326.00
2018-03-31T03:04:12.865Z,309.00
2018-03-31T03:05:13.203Z,232.00
2018-03-31T03:06:12.770Z,326.00
2018-03-31T03:07:15.371Z,207.00
2018-03-31T03:08:12.784Z,221.00
2018-03-31T03:09:13.025Z,197.00
2018-03-31T03:10:12.590Z,301.00
2018-03-31T03:11:12.727Z,253.00
2018-03-31T03:12:12.711Z,295.00
2018-03-31T03:13:15.640Z,219.00
2018-03-31T03:14:12.625Z,211.00
2018-03-31T03:15:12.742Z,327.00
2018-03-31T03:16:12.756Z,298.00
2018-03-31T03:17:12.890Z,319.00
2018-03-31T03:18:12.754Z,330.00
2018-03-31T03:19:12.770Z,292.00
2018-03-31T03:20:12.783Z,324.00
2018-03-31T03:21:13.863Z,250.00
2018-03-31T03:22:13.923Z,332.00
2018-03-31T03:23:13.129Z,335.00
2018-03-31T03:24:12.806Z,330.00
2018-03-31T03:25:12.710Z,327.00
2018-03-31T03:26:12.937Z,307.00
2018-03-31T03:27:12.722Z,329.00
2018-03-31T03:28:15.238Z,343.00
2018-03-31T03:29:12.734Z,336.00
2018-03-31T03:30:12.948Z,331.00
2018-03-31T03:31:12.747Z,337.00
2018-03-31T03:32:12.753Z,351.00
2018-03-31T03:33:12.769Z,336.00
2018-03-31T03:34:12.986Z,354.00
2018-03-31T03:35:12.778Z,320.00
2018-03-31T03:36:12.799Z,327.00
2018-03-31T03:37:12.792Z,337.00
2018-03-31T03:38:12.798Z,286.00
2018-03-31T03:39:12.818Z,204.00
2018-03-31T03:40:12.811Z,193.00
2018-03-31T03:41:12.820Z,325.00
2018-03-31T03:42:12.830Z,288.00
2018-03-31T03:43:12.843Z,249.00
2018-03-31T03:44:12.842Z,200.00
2018-03-31T03:45:12.850Z,187.00
2018-03-31T03:46:12.858Z,178.00
2018-03-31T03:47:12.865Z,195.00
2018-03-31T03:48:12.878Z,217.00
2018-03-31T03:49:12.886Z,332.00
2018-03-31T03:50:13.123Z,242.00
2018-03-31T03:51:13.131Z,325.00
2018-03-31T03:52:12.825Z,322.00
2018-03-31T03:53:12.914Z,224.00
2018-03-31T03:54:12.819Z,226.00
2018-03-31T03:55:12.834Z,334.00
2018-03-31T03:56:14.189Z,307.00
2018-03-31T03:57:12.750Z,244.00
2018-03-31T03:58:12.748Z,187.00
2018-03-31T03:59:12.757Z,180.00
2018-03-31T04:00:14.504Z,252.00
2018-03-31T04:01:12.772Z,223.00
2018-03-31T04:02:12.779Z,190.00
2018-03-31T04:03:12.770Z,188.00
2018-03-31T04:04:12.909Z,173.00
2018-03-31T04:05:12.790Z,180.00
2018-03-31T04:06:12.793Z,184.00
2018-03-31T04:07:12.818Z,207.00
2018-03-31T04:08:14.071Z,173.00
2018-03-31T04:09:12.838Z,190.00
2018-03-31T04:10:12.833Z,182.00
2018-03-31T04:11:12.735Z,187.00
2018-03-31T04:12:12.742Z,183.00
2018-03-31T04:13:12.848Z,191.00
2018-03-31T04:14:12.873Z,174.00
2018-03-31T04:15:12.867Z,177.00
2018-03-31T04:16:12.873Z,177.00
2018-03-31T04:17:12.899Z,181.00
2018-03-31T04:18:12.902Z,179.00
2018-03-31T04:19:12.893Z,178.00
2018-03-31T04:20:12.900Z,172.00
2018-03-31T04:21:12.908Z,166.00
2018-03-31T04:22:16.631Z,179.00
2018-03-31T04:23:12.826Z,156.00
2018-03-31T04:24:12.840Z,173.00
2018-03-31T04:25:12.944Z,173.00
2018-03-31T04:26:15.618Z,173.00
2018-03-31T04:27:12.864Z,181.00
2018-03-31T04:28:12.866Z,204.00
2018-03-31T04:29:12.868Z,206.00
2018-03-31T04:30:12.888Z,214.00
2018-03-31T04:31:12.869Z,266.00
2018-03-31T04:32:12.887Z,242.00
2018-03-31T04:33:12.794Z,283.00
2018-03-31T04:34:13.133Z,270.00
2018-03-31T04:35:13.133Z,317.00
2018-03-31T04:36:13.150Z,315.00
2018-03-31T04:37:14.175Z,196.00
2018-03-31T04:38:12.836Z,181.00
2018-03-31T04:39:13.754Z,206.00
2018-03-31T04:40:12.872Z,184.00
2018-03-31T04:41:12.759Z,175.00
2018-03-31T04:42:12.962Z,178.00
2018-03-31T04:43:12.767Z,178.00
2018-03-31T04:44:12.770Z,171.00
2018-03-31T04:45:12.779Z,180.00
2018-03-31T04:46:12.682Z,195.00
2018-03-31T04:47:12.688Z,185.00
2018-03-31T04:48:12.796Z,190.00
2018-03-31T04:49:12.833Z,222.00
2018-03-31T04:50:12.809Z,193.00
2018-03-31T04:51:12.817Z,214.00
2018-03-31T04:52:12.821Z,179.00
2018-03-31T04:53:12.832Z,184.00
2018-03-31T04:54:15.205Z,193.00
2018-03-31T04:55:12.893Z,184.00
2018-03-31T04:56:12.858Z,176.00
2018-03-31T04:57:12.858Z,193.00
2018-03-31T04:58:12.897Z,212.00
2018-03-31T04:59:12.878Z,185.00
2018-03-31T05:00:18.101Z,167.00
2018-03-31T05:01:12.894Z,173.00
2018-03-31T05:02:12.794Z,172.00
2018-03-31T05:03:12.805Z,172.00
2018-03-31T05:04:12.910Z,180.00
2018-03-31T05:05:12.922Z,277.00
2018-03-31T05:06:12.938Z,336.00
2018-03-31T05:07:12.830Z,240.00
2018-03-31T05:08:12.950Z,276.00
2018-03-31T05:09:12.946Z,250.00
2018-03-31T05:10:13.982Z,298.00
2018-03-31T05:11:12.965Z,248.00
2018-03-31T05:12:12.987Z,215.00
2018-03-31T05:13:12.973Z,327.00
2018-03-31T05:14:12.998Z,320.00
2018-03-31T05:15:12.986Z,333.00
2018-03-31T05:16:12.803Z,333.00
2018-03-31T05:17:12.810Z,356.00
2018-03-31T05:18:12.813Z,343.00
2018-03-31T05:19:12.820Z,284.00
2018-03-31T05:20:12.817Z,351.00
2018-03-31T05:21:12.938Z,348.00
2018-03-31T05:22:12.840Z,346.00
2018-03-31T05:23:12.849Z,345.00
2018-03-31T05:24:12.851Z,357.00
2018-03-31T05:25:13.117Z,356.00
2018-03-31T05:26:12.771Z,351.00
2018-03-31T05:27:12.765Z,346.00
2018-03-31T05:28:12.784Z,344.00
2018-03-31T05:29:12.890Z,336.00
2018-03-31T05:30:12.798Z,348.00
2018-03-31T05:31:12.802Z,327.00
2018-03-31T05:32:12.804Z,321.00
2018-03-31T05:33:12.947Z,345.00
2018-03-31T05:34:12.823Z,346.00
2018-03-31T05:35:14.330Z,353.00
2018-03-31T05:36:12.842Z,353.00
2018-03-31T05:37:12.849Z,346.00
2018-03-31T05:38:12.949Z,340.00
2018-03-31T05:39:12.958Z,345.00
2018-03-31T05:40:12.988Z,356.00
2018-03-31T05:41:13.998Z,341.00
2018-03-31T05:42:12.982Z,349.00
2018-03-31T05:43:13.023Z,316.00
2018-03-31T05:44:15.754Z,126.00
2018-03-31T05:45:13.353Z,321.00
2018-03-31T05:46:13.241Z,325.00
2018-03-31T05:47:12.817Z,344.00
2018-03-31T05:48:12.834Z,330.00
2018-03-31T05:49:12.834Z,7.00
2018-03-31T05:50:12.847Z,161.00
2018-03-31T05:51:12.851Z,329.00
2018-03-31T05:52:12.862Z,325.00
2018-03-31T05:53:12.874Z,289.00
2018-03-31T05:54:12.870Z,306.00
2018-03-31T05:55:15.927Z,3.00
2018-03-31T05:56:12.778Z,341.00
2018-03-31T05:57:12.899Z,102.00
2018-03-31T05:58:12.801Z,36.00
2018-03-31T05:59:12.897Z,306.00
2018-03-31T06:00:14.259Z,149.00
2018-03-31T06:01:12.922Z,301.00
2018-03-31T06:02:12.926Z,354.00
2018-03-31T06:03:12.941Z,327.00
2018-03-31T06:04:12.928Z,347.00
2018-03-31T06:05:12.846Z,345.00
2018-03-31T06:06:12.953Z,339.00
2018-03-31T06:07:12.954Z,354.00
2018-03-31T06:08:12.972Z,348.00
2018-03-31T06:09:13.015Z,340.00
2018-03-31T06:10:12.986Z,342.00
2018-03-31T06:11:13.100Z,333.00
2018-03-31T06:12:14.282Z,328.00
2018-03-31T06:13:17.923Z,338.00
2018-03-31T06:14:16.723Z,332.00
2018-03-31T06:15:15.231Z,308.00
2018-03-31T06:16:13.846Z,337.00
2018-03-31T06:17:13.569Z,290.00
2018-03-31T06:18:22.054Z,219.00
2018-03-31T06:19:12.862Z,317.00
2018-03-31T06:20:13.082Z,202.00
2018-03-31T06:21:19.258Z,179.00
2018-03-31T06:22:13.249Z,165.00
2018-03-31T06:23:13.373Z,147.00
2018-03-31T06:24:14.311Z,144.00
2018-03-31T06:25:14.562Z,137.00
2018-03-31T06:26:13.111Z,131.00
2018-03-31T06:27:12.810Z,134.00
2018-03-31T06:28:13.035Z,122.00
2018-03-31T06:29:19.061Z,132.00
2018-03-31T06:30:12.871Z,147.00
2018-03-31T06:31:12.634Z,166.00
2018-03-31T06:32:12.833Z,177.00
2018-03-31T06:33:19.294Z,156.00
2018-03-31T06:34:12.745Z,135.00
2018-03-31T06:35:20.130Z,135.00
2018-03-31T06:36:12.865Z,137.00
2018-03-31T06:37:21.337Z,135.00
2018-03-31T06:38:12.877Z,135.00
2018-03-31T06:39:14.209Z,337.00
2018-03-31T06:40:12.789Z,0.00
2018-03-31T06:41:14.257Z,348.00
2018-03-31T06:42:12.704Z,0.00
2018-03-31T06:43:12.824Z,0.00
2018-03-31T06:44:12.822Z,0.00
2018-03-31T06:45:12.716Z,341.00
2018-03-31T06:46:18.773Z,333.00
2018-03-31T06:47:12.833Z,180.00
2018-03-31T06:48:12.858Z,209.00
2018-03-31T06:49:12.866Z,229.00
2018-03-31T06:50:13.248Z,180.00
2018-03-31T06:51:12.993Z,180.00
2018-03-31T06:52:12.884Z,176.00
2018-03-31T06:53:12.894Z,128.00
2018-03-31T06:54:12.894Z,135.00
2018-03-31T06:55:13.118Z,135.00
2018-03-31T06:56:12.910Z,135.00
2018-03-31T06:57:12.909Z,133.00
2018-03-31T06:58:12.931Z,135.00
2018-03-31T06:59:13.026Z,104.00
2018-03-31T07:00:14.367Z,103.00
2018-03-31T07:01:12.955Z,127.00
2018-03-31T07:02:12.860Z,135.00
2018-03-31T07:03:12.959Z,135.00
2018-03-31T07:04:12.961Z,135.00
2018-03-31T07:05:12.971Z,128.00
2018-03-31T07:06:13.006Z,114.00
2018-03-31T07:07:13.222Z,94.00
2018-03-31T07:08:12.969Z,105.00
2018-03-31T07:09:12.899Z,100.00
2018-03-31T07:10:12.903Z,131.00
2018-03-31T07:11:13.251Z,123.00
2018-03-31T07:12:12.914Z,101.00
2018-03-31T07:13:12.931Z,98.00
2018-03-31T07:14:12.838Z,89.00
2018-03-31T07:15:13.051Z,89.00
2018-03-31T07:16:15.859Z,86.00
2018-03-31T07:17:12.854Z,89.00
2018-03-31T07:18:12.899Z,89.00
2018-03-31T07:19:12.879Z,56.00
2018-03-31T07:20:13.086Z,79.00
2018-03-31T07:21:13.087Z,50.00
2018-03-31T07:22:12.924Z,37.00
2018-03-31T07:23:12.915Z,45.00
2018-03-31T07:24:13.340Z,38.00
2018-03-31T07:25:12.942Z,0.00
2018-03-31T07:26:12.916Z,135.00
2018-03-31T07:27:12.938Z,135.00
2018-03-31T07:28:13.169Z,135.00
2018-03-31T07:29:12.843Z,135.00
2018-03-31T07:30:12.850Z,135.00
2018-03-31T07:31:12.851Z,135.00
2018-03-31T07:32:13.218Z,135.00
2018-03-31T07:33:12.867Z,135.00
2018-03-31T07:34:12.873Z,135.00
2018-03-31T07:35:12.902Z,135.00
2018-03-31T07:36:12.891Z,135.00
2018-03-31T07:37:13.158Z,140.00
2018-03-31T07:38:12.926Z,135.00
2018-03-31T07:39:12.915Z,135.00
2018-03-31T07:40:12.933Z,141.00
2018-03-31T07:41:16.279Z,142.00
2018-03-31T07:42:12.931Z,137.00
2018-03-31T07:43:12.833Z,137.00
2018-03-31T07:44:12.853Z,158.00
2018-03-31T07:45:14.074Z,162.00
2018-03-31T07:46:12.866Z,154.00
2018-03-31T07:47:12.878Z,151.00
2018-03-31T07:48:12.879Z,151.00
2018-03-31T07:49:13.087Z,160.00
2018-03-31T07:50:13.090Z,167.00
2018-03-31T07:51:12.957Z,155.00
2018-03-31T07:52:12.898Z,163.00
2018-03-31T07:53:12.811Z,148.00
2018-03-31T07:54:13.136Z,169.00
2018-03-31T07:55:13.125Z,167.00
2018-03-31T07:56:13.143Z,137.00
2018-03-31T07:57:12.933Z,135.00
2018-03-31T07:58:12.946Z,131.00
2018-03-31T07:59:12.954Z,141.00
2018-03-31T08:00:14.403Z,164.00
2018-03-31T08:01:12.954Z,137.00
2018-03-31T08:02:12.991Z,146.00
2018-03-31T08:03:13.021Z,139.00
2018-03-31T08:04:12.986Z,157.00
2018-03-31T08:05:13.012Z,126.00
2018-03-31T08:06:13.002Z,141.00
2018-03-31T08:07:13.021Z,139.00
2018-03-31T08:08:13.032Z,137.00
2018-03-31T08:09:13.028Z,144.00
2018-03-31T08:10:13.034Z,138.00
2018-03-31T08:11:13.042Z,145.00
2018-03-31T08:12:13.041Z,136.00
2018-03-31T08:13:13.057Z,135.00
2018-03-31T08:14:13.070Z,143.00
2018-03-31T08:15:13.074Z,155.00
2018-03-31T08:16:14.354Z,147.00
2018-03-31T08:17:13.125Z,136.00
2018-03-31T08:18:13.099Z,148.00
2018-03-31T08:19:12.738Z,152.00
2018-03-31T08:20:15.802Z,164.00
2018-03-31T08:21:13.531Z,144.00
2018-03-31T08:22:12.809Z,106.00
2018-03-31T08:23:13.138Z,117.00
2018-03-31T08:24:13.241Z,185.00
2018-03-31T08:25:13.138Z,180.00
2018-03-31T08:26:13.154Z,338.00
2018-03-31T08:27:13.159Z,337.00
2018-03-31T08:28:13.167Z,215.00
2018-03-31T08:29:13.169Z,337.00
2018-03-31T08:30:12.870Z,337.00
2018-03-31T08:31:12.878Z,173.00
2018-03-31T08:32:15.966Z,180.00
2018-03-31T08:33:12.889Z,143.00
2018-03-31T08:34:12.896Z,135.00
2018-03-31T08:35:12.907Z,128.00
2018-03-31T08:36:13.122Z,135.00
2018-03-31T08:37:12.823Z,135.00
2018-03-31T08:38:12.825Z,114.00
2018-03-31T08:39:13.038Z,105.00
2018-03-31T08:40:12.942Z,128.00
2018-03-31T08:41:12.957Z,154.00
2018-03-31T08:42:13.185Z,158.00
2018-03-31T08:43:12.869Z,158.00
2018-03-31T08:44:12.982Z,154.00
2018-03-31T08:45:13.014Z,145.00
2018-03-31T08:46:13.031Z,163.00
2018-03-31T08:47:14.137Z,154.00
2018-03-31T08:48:12.938Z,105.00
2018-03-31T08:49:13.053Z,89.00
2018-03-31T08:50:13.021Z,92.00
2018-03-31T08:51:13.058Z,149.00
2018-03-31T08:52:12.970Z,142.00
2018-03-31T08:53:13.046Z,182.00
2018-03-31T08:54:13.041Z,328.00
2018-03-31T08:55:13.050Z,336.00
2018-03-31T08:56:13.066Z,337.00
2018-03-31T08:57:13.063Z,353.00
2018-03-31T08:58:13.072Z,0.00
2018-03-31T08:59:13.080Z,336.00
2018-03-31T09:00:14.427Z,337.00
2018-03-31T09:01:13.130Z,187.00
2018-03-31T09:02:13.131Z,234.00
2018-03-31T09:03:13.972Z,337.00
2018-03-31T09:04:12.913Z,326.00
2018-03-31T09:05:12.920Z,323.00
2018-03-31T09:06:12.926Z,331.00
2018-03-31T09:07:12.946Z,336.00
2018-03-31T09:08:14.091Z,336.00
2018-03-31T09:09:15.788Z,309.00
2018-03-31T09:10:12.964Z,321.00
2018-03-31T09:11:12.961Z,335.00
2018-03-31T09:12:12.978Z,344.00
2018-03-31T09:13:12.999Z,339.00
2018-03-31T09:14:13.025Z,337.00
2018-03-31T09:15:13.026Z,326.00
2018-03-31T09:16:14.030Z,206.00
2018-03-31T09:17:13.030Z,333.00
2018-03-31T09:18:14.053Z,333.00
2018-03-31T09:19:13.056Z,185.00
2018-03-31T09:20:13.026Z,182.00
2018-03-31T09:21:12.947Z,181.00
2018-03-31T09:22:12.940Z,189.00
2018-03-31T09:23:13.059Z,187.00
2018-03-31T09:24:13.062Z,298.00
2018-03-31T09:25:13.071Z,178.00
2018-03-31T09:26:13.011Z,191.00
2018-03-31T09:27:12.978Z,180.00
2018-03-31T09:28:13.330Z,180.00
2018-03-31T09:29:18.460Z,146.00
2018-03-31T09:30:22.358Z,135.00
2018-03-31T09:31:12.906Z,126.00
2018-03-31T09:32:12.912Z,62.00
2018-03-31T09:33:12.921Z,135.00
2018-03-31T09:34:12.830Z,152.00
2018-03-31T09:35:12.940Z,173.00
2018-03-31T09:36:12.949Z,138.00
2018-03-31T09:37:12.971Z,139.00
2018-03-31T09:38:12.962Z,135.00
2018-03-31T09:39:12.965Z,155.00
2018-03-31T09:40:12.962Z,136.00
2018-03-31T09:41:12.979Z,167.00
2018-03-31T09:42:13.015Z,161.00
2018-03-31T09:43:12.997Z,85.00
2018-03-31T09:44:13.004Z,102.00
2018-03-31T09:45:12.911Z,104.00
2018-03-31T09:46:12.918Z,50.00
2018-03-31T09:47:13.302Z,59.00
2018-03-31T09:48:12.836Z,142.00
2018-03-31T09:49:12.929Z,121.00
2018-03-31T09:50:20.322Z,96.00
2018-03-31T09:51:15.002Z,135.00
2018-03-31T09:52:12.966Z,163.00
2018-03-31T09:53:12.963Z,130.00
2018-03-31T09:54:15.580Z,325.00
2018-03-31T09:55:12.990Z,107.00
2018-03-31T09:56:12.984Z,90.00
2018-03-31T09:57:12.993Z,86.00
2018-03-31T09:58:12.800Z,132.00
2018-03-31T09:59:12.917Z,89.00
2018-03-31T10:00:14.137Z,121.00
2018-03-31T10:01:13.291Z,105.00
2018-03-31T10:02:12.946Z,126.00
2018-03-31T10:03:12.950Z,113.00
2018-03-31T10:04:12.957Z,92.00
2018-03-31T10:05:12.945Z,104.00
2018-03-31T10:06:12.862Z,90.00
2018-03-31T10:07:12.762Z,111.00
2018-03-31T10:08:12.877Z,103.00
2018-03-31T10:09:12.970Z,100.00
2018-03-31T10:10:12.982Z,104.00
2018-03-31T10:11:12.885Z,89.00
2018-03-31T10:12:13.002Z,121.00
2018-03-31T10:13:13.010Z,113.00
2018-03-31T10:14:13.036Z,136.00
2018-03-31T10:15:12.539Z,145.00
2018-03-31T10:16:12.962Z,133.00
2018-03-31T10:17:12.977Z,127.00
2018-03-31T10:18:12.978Z,119.00
2018-03-31T10:19:12.985Z,136.00
2018-03-31T10:20:12.994Z,112.00
2018-03-31T10:21:12.999Z,87.00
2018-03-31T10:22:13.000Z,81.00
2018-03-31T10:23:13.016Z,88.00
2018-03-31T10:24:13.122Z,91.00
2018-03-31T10:25:13.042Z,109.00
2018-03-31T10:26:12.997Z,92.00
2018-03-31T10:27:13.014Z,83.00
2018-03-31T10:28:13.015Z,109.00
2018-03-31T10:29:13.070Z,89.00
2018-03-31T10:30:13.020Z,75.00
2018-03-31T10:31:12.968Z,58.00
2018-03-31T10:32:12.929Z,85.00
2018-03-31T10:33:12.948Z,98.00
2018-03-31T10:34:12.987Z,92.00
2018-03-31T10:35:13.000Z,88.00
2018-03-31T10:36:12.967Z,97.00
2018-03-31T10:37:12.982Z,104.00
2018-03-31T10:38:12.979Z,86.00
2018-03-31T10:39:12.990Z,110.00
2018-03-31T10:40:13.020Z,94.00
2018-03-31T10:41:13.017Z,102.00
2018-03-31T10:42:13.009Z,90.00
2018-03-31T10:43:13.022Z,96.00
2018-03-31T10:44:13.015Z,102.00
2018-03-31T10:45:13.042Z,100.00
2018-03-31T10:46:12.981Z,88.00
2018-03-31T10:47:12.987Z,71.00
2018-03-31T10:48:12.950Z,89.00
2018-03-31T10:49:12.958Z,88.00
2018-03-31T10:50:12.981Z,98.00
2018-03-31T10:51:12.973Z,100.00
2018-03-31T10:52:12.981Z,10.00
2018-03-31T10:53:12.990Z,43.00
2018-03-31T10:54:12.999Z,100.00
2018-03-31T10:55:13.002Z,88.00
2018-03-31T10:56:12.906Z,74.00
2018-03-31T10:57:13.014Z,105.00
2018-03-31T10:58:13.022Z,87.00
2018-03-31T10:59:13.037Z,84.00
2018-03-31T11:00:14.216Z,97.00
2018-03-31T11:01:13.046Z,99.00
2018-03-31T11:02:12.964Z,73.00
2018-03-31T11:03:12.966Z,88.00
2018-03-31T11:04:12.965Z,49.00
2018-03-31T11:05:12.975Z,65.00
2018-03-31T11:06:13.494Z,65.00
2018-03-31T11:07:15.666Z,11.00
2018-03-31T11:08:12.989Z,340.00
2018-03-31T11:09:13.006Z,25.00
2018-03-31T11:10:13.005Z,46.00
2018-03-31T11:11:13.017Z,101.00
2018-03-31T11:12:13.034Z,120.00
2018-03-31T11:13:13.071Z,92.00
2018-03-31T11:14:13.039Z,11.00
2018-03-31T11:15:13.053Z,89.00
2018-03-31T11:16:13.046Z,71.00
2018-03-31T11:17:12.950Z,81.00
2018-03-31T11:18:13.011Z,91.00
2018-03-31T11:19:13.010Z,112.00
2018-03-31T11:20:14.208Z,83.00
2018-03-31T11:21:13.029Z,91.00
2018-03-31T11:22:13.032Z,102.00
2018-03-31T11:23:15.832Z,101.00
2018-03-31T11:24:13.004Z,108.00
2018-03-31T11:25:13.024Z,106.00
2018-03-31T11:26:13.062Z,93.00
2018-03-31T11:27:13.075Z,118.00
2018-03-31T11:28:13.079Z,119.00
2018-03-31T11:29:13.046Z,118.00
2018-03-31T11:30:15.109Z,93.00
2018-03-31T11:31:13.065Z,117.00
2018-03-31T11:32:12.999Z,126.00
2018-03-31T11:33:12.973Z,132.00
2018-03-31T11:34:15.677Z,122.00
2018-03-31T11:35:14.125Z,132.00
2018-03-31T11:36:12.996Z,116.00
2018-03-31T11:37:13.006Z,124.00
2018-03-31T11:38:13.580Z,128.00
2018-03-31T11:39:13.019Z,126.00
2018-03-31T11:40:13.026Z,117.00
2018-03-31T11:41:13.053Z,120.00
2018-03-31T11:42:12.940Z,112.00
2018-03-31T11:43:13.055Z,127.00
2018-03-31T11:44:13.058Z,147.00
2018-03-31T11:45:12.967Z,156.00
2018-03-31T11:46:13.485Z,140.00
2018-03-31T11:47:13.086Z,146.00
2018-03-31T11:48:12.983Z,137.00
2018-03-31T11:49:12.991Z,144.00
2018-03-31T11:50:12.994Z,140.00
2018-03-31T11:51:13.458Z,146.00
2018-03-31T11:52:13.105Z,137.00
2018-03-31T11:53:13.337Z,131.00
2018-03-31T11:54:13.023Z,127.00
2018-03-31T11:55:13.242Z,135.00
2018-03-31T11:56:12.935Z,125.00
2018-03-31T11:57:13.220Z,126.00
2018-03-31T11:58:12.958Z,112.00
2018-03-31T11:59:13.298Z,135.00
2018-03-31T12:00:14.834Z,121.00
2018-03-31T12:01:13.377Z,136.00
2018-03-31T12:02:13.085Z,134.00
2018-03-31T12:03:13.330Z,134.00
2018-03-31T12:04:13.518Z,136.00
2018-03-31T12:05:13.003Z,134.00
2018-03-31T12:06:13.009Z,113.00
2018-03-31T12:07:13.009Z,103.00
2018-03-31T12:08:13.233Z,112.00
2018-03-31T12:09:13.621Z,124.00
2018-03-31T12:10:13.045Z,128.00
2018-03-31T12:11:13.182Z,135.00
2018-03-31T12:12:13.262Z,114.00
2018-03-31T12:13:13.379Z,121.00
2018-03-31T12:14:13.238Z,133.00
2018-03-31T12:15:13.282Z,137.00
2018-03-31T12:16:13.432Z,129.00
2018-03-31T12:17:13.301Z,121.00
2018-03-31T12:18:13.389Z,107.00
2018-03-31T12:19:13.459Z,111.00
2018-03-31T12:20:13.112Z,109.00
2018-03-31T12:21:13.284Z,92.00
2018-03-31T12:22:19.468Z,116.00
2018-03-31T12:23:13.066Z,117.00
2018-03-31T12:24:13.227Z,122.00
2018-03-31T12:25:13.491Z,114.00
2018-03-31T12:26:13.090Z,128.00
2018-03-31T12:27:13.096Z,117.00
2018-03-31T12:28:13.105Z,102.00
2018-03-31T12:29:13.302Z,136.00
2018-03-31T12:30:13.113Z,135.00
2018-03-31T12:31:13.130Z,136.00